Millville, Utah
Current Conditions -  °F | °C
As of 9:51 AM on Thursday 23 Oct 2014 (Local Time) from KLGU Reporting Station
Clear Clear  
Wind Chill: 40°   Ceiling: Unl
Heat Index: 40°   Visibility: 10mi
Dew Point: 33°   Wind: 3mph
Humidity: 77%   Direction: 260°W
Pressure: 30.17"   Gusts: NA
Location:  41.68°N, 111.82°W
Report Text: KLGU 231551Z AUTO 26003KT 10SM CLR 04/01 A3017 RMK AO2 SLP218 T00440006 TSNO
Loading
Personal Weather Stations






























Interactive Weather Map
Tropical Storm Tracking
New forecast layout! Learn more

10-Day Weather Forecast

Advertisements
Track Severe Weather on mobile